Ana Sayfa
METAR-TAF:

METAR-TAF

Havaalanları :

Wink, Teksas, Amerika Birleşik Devletleri

Enlem: 31-46-47N, Boylam: 103-12-05W, yükseklik: 860 m

Güncel hava durumu gözlemi

Rapor saat 19:53 UTC de 1 saat ve 6 dakika önce yapıldı.
Rüzgar güneydan 8 kt
Sıcaklık 20°C
Nem 30%
Basınç 1016 hPa
Görüş mesafesi: 16.1 km
Açık gökyüzü

METAR: KINK 161953Z AUTO 19008KT 10SM CLR 20/02 A3000 RMK AO2 SLP137 T02000017

Saat: 14:59 (20:59 UTC)

Tahmin

Rapor saat 18:04 UTC de 2 saat ve 55 dakika önce yapıldı.
Ayın 16'si saat 18 UTC'den ayın 17'si saat 18 UTC'ye kadar geçerli Tahmin
Rüzgar güney/güneybatıdan 7 kt
Görüş mesafesi: 10 km
20000 ft yükseklikte az bulutlu
Ayın 17'si saat 1200 UTC'den
Rüzgar kuzeydan 12 kt ve 17 kt'a kadar ani rüzgarlar
Görüş mesafesi: 10 km
Açık gökyüzü

TAF: KINK 161804Z 1618/1718 21007KT P6SM FEW200 FM171200 35012G17KT P6SM SKC

4.000'den fazla havaalanı için hava durumu gözlemleri ve tahminleri (METAR ve TAF raporları).

Kullanılabilir istasyonlar harita üzerinde sarı ve kırmızı noktalarla gösterilir.

İstasyonun adını görmek için fareyi noktanın üzerinde gezdirin.

Sonrasında hava gözlem ve tahminlerini görmek için tıklayın.

Haritayı değiştirmek için: yaklaştırmak için siyah artı işaretli yeşil düğmeye ve uzaklaştırmak için de eksi işaretli düğmeye hızla tıklayın; bitişik haritalar için yeşil okları kullanın.


METAR-TAF: